sensor_id;sensor_type;location;lat;lon;timestamp;pressure;altitude;pressure_sealevel;temperature;humidity
8717;BME280;4395;48.554;8.820;2023-04-07T00:00:12;95841.41;;;6.80;100.00
8717;BME280;4395;48.554;8.820;2023-04-07T00:02:16;95861.88;;;6.97;100.00
8717;BME280;4395;48.554;8.820;2023-04-07T00:04:19;95843.50;;;6.77;100.00
8717;BME280;4395;48.554;8.820;2023-04-07T00:06:23;95853.63;;;6.87;100.00
8717;BME280;4395;48.554;8.820;2023-04-07T00:08:27;95864.31;;;6.87;100.00
8717;BME280;4395;48.554;8.820;2023-04-07T00:10:30;95800.47;;;6.44;100.00
8717;BME280;4395;48.554;8.820;2023-04-07T00:12:33;95832.91;;;6.59;100.00
8717;BME280;4395;48.554;8.820;2023-04-07T00:14:36;95845.38;;;6.77;100.00
8717;BME280;4395;48.554;8.820;2023-04-07T00:16:39;95756.66;;;6.10;100.00
8717;BME280;4395;48.554;8.820;2023-04-07T00:18:42;95840.22;;;6.64;100.00
8717;BME280;4395;48.554;8.820;2023-04-07T00:20:45;95849.78;;;6.71;100.00
8717;BME280;4395;48.554;8.820;2023-04-07T00:22:49;95853.72;;;6.69;100.00
8717;BME280;4395;48.554;8.820;2023-04-07T00:24:51;95856.03;;;6.65;100.00
8717;BME280;4395;48.554;8.820;2023-04-07T00:26:55;95861.81;;;6.62;100.00
8717;BME280;4395;48.554;8.820;2023-04-07T00:28:58;95845.78;;;6.62;100.00
8717;BME280;4395;48.554;8.820;2023-04-07T00:31:01;95853.59;;;6.64;100.00
8717;BME280;4395;48.554;8.820;2023-04-07T00:33:04;95848.94;;;6.59;100.00
8717;BME280;4395;48.554;8.820;2023-04-07T00:35:10;95846.84;;;6.61;100.00
8717;BME280;4395;48.554;8.820;2023-04-07T00:37:13;95835.34;;;6.61;100.00
8717;BME280;4395;48.554;8.820;2023-04-07T00:39:17;95842.91;;;6.64;100.00
8717;BME280;4395;48.554;8.820;2023-04-07T00:41:20;95813.38;;;6.47;100.00
8717;BME280;4395;48.554;8.820;2023-04-07T00:43:23;95836.75;;;6.63;100.00
8717;BME280;4395;48.554;8.820;2023-04-07T00:45:26;95829.19;;;6.60;100.00
8717;BME280;4395;48.554;8.820;2023-04-07T00:47:29;95822.22;;;6.59;100.00
8717;BME280;4395;48.554;8.820;2023-04-07T00:49:33;95812.59;;;6.58;100.00
8717;BME280;4395;48.554;8.820;2023-04-07T00:51:38;95802.72;;;6.59;100.00
8717;BME280;4395;48.554;8.820;2023-04-07T00:53:41;95812.44;;;6.41;100.00
8717;BME280;4395;48.554;8.820;2023-04-07T00:55:46;95819.41;;;6.12;100.00
8717;BME280;4395;48.554;8.820;2023-04-07T00:57:50;95815.97;;;6.24;100.00
8717;BME280;4395;48.554;8.820;2023-04-07T00:59:53;95797.41;;;6.29;100.00
8717;BME280;4395;48.554;8.820;2023-04-07T01:02:01;95802.66;;;6.35;100.00
8717;BME280;4395;48.554;8.820;2023-04-07T01:04:08;95779.78;;;6.28;100.00
8717;BME280;4395;48.554;8.820;2023-04-07T01:06:17;95791.53;;;6.38;100.00
8717;BME280;4395;48.554;8.820;2023-04-07T01:08:27;95791.16;;;6.35;100.00
8717;BME280;4395;48.554;8.820;2023-04-07T01:10:35;95797.09;;;6.37;100.00
8717;BME280;4395;48.554;8.820;2023-04-07T01:12:53;95789.69;;;6.39;100.00
8717;BME280;4395;48.554;8.820;2023-04-07T01:15:04;95761.34;;;6.26;100.00
8717;BME280;4395;48.554;8.820;2023-04-07T01:17:14;95785.59;;;6.36;100.00
8717;BME280;4395;48.554;8.820;2023-04-07T01:19:31;95784.09;;;6.40;100.00
8717;BME280;4395;48.554;8.820;2023-04-07T01:21:36;95776.78;;;6.36;100.00
8717;BME280;4395;48.554;8.820;2023-04-07T01:23:51;95781.75;;;6.32;100.00
8717;BME280;4395;48.554;8.820;2023-04-07T01:26:09;95774.34;;;6.34;100.00
8717;BME280;4395;48.554;8.820;2023-04-07T01:28:39;95768.78;;;6.36;100.00
8717;BME280;4395;48.554;8.820;2023-04-07T01:30:44;95721.72;;;6.11;100.00
8717;BME280;4395;48.554;8.820;2023-04-07T01:32:50;95752.94;;;6.11;100.00
8717;BME280;4395;48.554;8.820;2023-04-07T01:34:55;95758.44;;;6.28;100.00
8717;BME280;4395;48.554;8.820;2023-04-07T01:37:00;95758.53;;;6.21;100.00
8717;BME280;4395;48.554;8.820;2023-04-07T01:39:04;95774.94;;;6.36;100.00
8717;BME280;4395;48.554;8.820;2023-04-07T01:41:08;95761.59;;;6.36;100.00
8717;BME280;4395;48.554;8.820;2023-04-07T01:43:12;95756.34;;;6.30;100.00
8717;BME280;4395;48.554;8.820;2023-04-07T01:45:17;95745.78;;;6.35;100.00
8717;BME280;4395;48.554;8.820;2023-04-07T01:47:21;95746.97;;;6.39;100.00
8717;BME280;4395;48.554;8.820;2023-04-07T01:49:25;95760.31;;;6.39;100.00
8717;BME280;4395;48.554;8.820;2023-04-07T01:51:29;95750.09;;;6.36;100.00
8717;BME280;4395;48.554;8.820;2023-04-07T01:53:34;95752.19;;;6.34;100.00
8717;BME280;4395;48.554;8.820;2023-04-07T01:55:38;95747.44;;;6.36;100.00
8717;BME280;4395;48.554;8.820;2023-04-07T01:57:42;95747.28;;;6.31;100.00
8717;BME280;4395;48.554;8.820;2023-04-07T01:59:52;95757.28;;;6.35;100.00
8717;BME280;4395;48.554;8.820;2023-04-07T02:01:58;95750.69;;;6.38;100.00
8717;BME280;4395;48.554;8.820;2023-04-07T02:04:08;95754.50;;;6.42;100.00
8717;BME280;4395;48.554;8.820;2023-04-07T02:06:17;95738.59;;;6.35;100.00
8717;BME280;4395;48.554;8.820;2023-04-07T02:08:23;95747.44;;;6.48;100.00
8717;BME280;4395;48.554;8.820;2023-04-07T02:10:32;95749.88;;;6.49;100.00
8717;BME280;4395;48.554;8.820;2023-04-07T02:12:38;95738.75;;;6.52;100.00
8717;BME280;4395;48.554;8.820;2023-04-07T02:14:47;95747.09;;;6.56;100.00
8717;BME280;4395;48.554;8.820;2023-04-07T02:16:51;95744.66;;;6.54;100.00
8717;BME280;4395;48.554;8.820;2023-04-07T02:18:55;95741.53;;;6.57;100.00
8717;BME280;4395;48.554;8.820;2023-04-07T02:21:00;95738.88;;;6.57;100.00
8717;BME280;4395;48.554;8.820;2023-04-07T02:23:06;95699.38;;;6.24;100.00
8717;BME280;4395;48.554;8.820;2023-04-07T02:25:23;95671.38;;;6.03;100.00
8717;BME280;4395;48.554;8.820;2023-04-07T02:27:27;95730.16;;;6.50;100.00
8717;BME280;4395;48.554;8.820;2023-04-07T02:29:30;95699.38;;;6.24;100.00
8717;BME280;4395;48.554;8.820;2023-04-07T02:31:32;95738.28;;;6.55;100.00
8717;BME280;4395;48.554;8.820;2023-04-07T02:33:36;95713.22;;;6.56;100.00
8717;BME280;4395;48.554;8.820;2023-04-07T02:35:39;95715.06;;;6.56;100.00
8717;BME280;4395;48.554;8.820;2023-04-07T02:37:43;95721.69;;;6.65;100.00
8717;BME280;4395;48.554;8.820;2023-04-07T02:39:46;95722.03;;;6.68;100.00
8717;BME280;4395;48.554;8.820;2023-04-07T02:41:49;95724.94;;;6.67;100.00
8717;BME280;4395;48.554;8.820;2023-04-07T02:43:52;95649.34;;;6.20;100.00
8717;BME280;4395;48.554;8.820;2023-04-07T02:45:55;95709.38;;;6.64;100.00
8717;BME280;4395;48.554;8.820;2023-04-07T02:47:58;95721.69;;;6.65;100.00
8717;BME280;4395;48.554;8.820;2023-04-07T02:50:01;95587.56;;;5.69;100.00
8717;BME280;4395;48.554;8.820;2023-04-07T02:52:07;95722.25;;;6.55;100.00
8717;BME280;4395;48.554;8.820;2023-04-07T02:54:12;95718.31;;;6.58;100.00
8717;BME280;4395;48.554;8.820;2023-04-07T02:56:15;95714.47;;;6.54;100.00
8717;BME280;4395;48.554;8.820;2023-04-07T02:58:18;95711.22;;;6.52;100.00
8717;BME280;4395;48.554;8.820;2023-04-07T03:00:21;95636.81;;;6.08;100.00
8717;BME280;4395;48.554;8.820;2023-04-07T03:02:33;95710.66;;;6.61;100.00
8717;BME280;4395;48.554;8.820;2023-04-07T03:04:36;95711.47;;;6.62;100.00
8717;BME280;4395;48.554;8.820;2023-04-07T03:06:39;95712.50;;;6.37;100.00
8717;BME280;4395;48.554;8.820;2023-04-07T03:08:47;95717.25;;;6.47;100.00
8717;BME280;4395;48.554;8.820;2023-04-07T03:10:51;95710.88;;;6.48;100.00
8717;BME280;4395;48.554;8.820;2023-04-07T03:12:59;95688.34;;;6.32;100.00
8717;BME280;4395;48.554;8.820;2023-04-07T03:15:04;95706.47;;;6.42;100.00
8717;BME280;4395;48.554;8.820;2023-04-07T03:17:07;95626.34;;;5.95;100.00
8717;BME280;4395;48.554;8.820;2023-04-07T03:19:10;95687.25;;;5.98;100.00
8717;BME280;4395;48.554;8.820;2023-04-07T03:21:17;95688.44;;;6.14;100.00
8717;BME280;4395;48.554;8.820;2023-04-07T03:23:20;95601.44;;;5.60;100.00
8717;BME280;4395;48.554;8.820;2023-04-07T03:25:25;95699.19;;;5.96;100.00
8717;BME280;4395;48.554;8.820;2023-04-07T03:27:30;95695.38;;;6.03;100.00
8717;BME280;4395;48.554;8.820;2023-04-07T03:29:34;95685.66;;;6.09;100.00
8717;BME280;4395;48.554;8.820;2023-04-07T03:31:40;95687.53;;;6.20;100.00
8717;BME280;4395;48.554;8.820;2023-04-07T03:33:44;95693.09;;;6.30;100.00
8717;BME280;4395;48.554;8.820;2023-04-07T03:35:47;95683.72;;;6.28;100.00
8717;BME280;4395;48.554;8.820;2023-04-07T03:37:50;95686.84;;;6.25;100.00
8717;BME280;4395;48.554;8.820;2023-04-07T03:39:53;95678.59;;;6.26;100.00
8717;BME280;4395;48.554;8.820;2023-04-07T03:42:03;95686.25;;;6.34;100.00
8717;BME280;4395;48.554;8.820;2023-04-07T03:44:08;95681.28;;;6.38;100.00
8717;BME280;4395;48.554;8.820;2023-04-07T03:46:12;95683.00;;;6.32;100.00
8717;BME280;4395;48.554;8.820;2023-04-07T03:48:16;95677.44;;;6.34;100.00
8717;BME280;4395;48.554;8.820;2023-04-07T03:50:29;95667.13;;;6.37;100.00
8717;BME280;4395;48.554;8.820;2023-04-07T03:52:44;95668.06;;;6.43;100.00
8717;BME280;4395;48.554;8.820;2023-04-07T03:54:56;95603.75;;;6.09;100.00
8717;BME280;4395;48.554;8.820;2023-04-07T03:57:04;95667.69;;;6.51;100.00
8717;BME280;4395;48.554;8.820;2023-04-07T03:59:13;95666.31;;;6.49;100.00
8717;BME280;4395;48.554;8.820;2023-04-07T04:01:27;95637.88;;;6.31;100.00
8717;BME280;4395;48.554;8.820;2023-04-07T04:03:34;95672.81;;;6.41;100.00
8717;BME280;4395;48.554;8.820;2023-04-07T04:05:55;95672.31;;;6.09;100.00
8717;BME280;4395;48.554;8.820;2023-04-07T04:08:02;95612.94;;;5.72;100.00
8717;BME280;4395;48.554;8.820;2023-04-07T04:10:07;95662.59;;;5.85;100.00
8717;BME280;4395;48.554;8.820;2023-04-07T04:12:14;95669.75;;;6.02;100.00
8717;BME280;4395;48.554;8.820;2023-04-07T04:14:30;95668.69;;;5.92;100.00
8717;BME280;4395;48.554;8.820;2023-04-07T04:16:35;95669.66;;;5.79;100.00
8717;BME280;4395;48.554;8.820;2023-04-07T04:18:46;95673.91;;;5.98;100.00
8717;BME280;4395;48.554;8.820;2023-04-07T04:20:49;95669.28;;;6.05;100.00
8717;BME280;4395;48.554;8.820;2023-04-07T04:22:53;95669.88;;;6.07;100.00
8717;BME280;4395;48.554;8.820;2023-04-07T04:24:55;95663.25;;;6.10;100.00
8717;BME280;4395;48.554;8.820;2023-04-07T04:27:00;95676.00;;;5.96;100.00
8717;BME280;4395;48.554;8.820;2023-04-07T04:29:03;95669.06;;;5.77;100.00
8717;BME280;4395;48.554;8.820;2023-04-07T04:31:08;95675.63;;;5.93;100.00
8717;BME280;4395;48.554;8.820;2023-04-07T04:33:15;95666.03;;;6.03;100.00
8717;BME280;4395;48.554;8.820;2023-04-07T04:35:26;95604.72;;;5.73;100.00
8717;BME280;4395;48.554;8.820;2023-04-07T04:37:39;95667.44;;;6.18;100.00
8717;BME280;4395;48.554;8.820;2023-04-07T04:39:44;95663.75;;;6.19;100.00
8717;BME280;4395;48.554;8.820;2023-04-07T04:41:51;95660.50;;;6.17;100.00
8717;BME280;4395;48.554;8.820;2023-04-07T04:43:57;95667.56;;;6.11;100.00
8717;BME280;4395;48.554;8.820;2023-04-07T04:46:01;95665.22;;;6.03;100.00
8717;BME280;4395;48.554;8.820;2023-04-07T04:48:10;95666.16;;;6.08;100.00
8717;BME280;4395;48.554;8.820;2023-04-07T04:50:13;95666.28;;;6.13;100.00
8717;BME280;4395;48.554;8.820;2023-04-07T04:52:18;95661.75;;;6.14;100.00
8717;BME280;4395;48.554;8.820;2023-04-07T04:54:23;95638.19;;;5.99;100.00
8717;BME280;4395;48.554;8.820;2023-04-07T04:56:27;95661.41;;;6.10;100.00
8717;BME280;4395;48.554;8.820;2023-04-07T04:58:29;95658.63;;;6.05;100.00
8717;BME280;4395;48.554;8.820;2023-04-07T05:00:33;95655.81;;;6.00;100.00
8717;BME280;4395;48.554;8.820;2023-04-07T05:02:39;95659.72;;;5.86;100.00
8717;BME280;4395;48.554;8.820;2023-04-07T05:04:45;95662.66;;;5.96;100.00
8717;BME280;4395;48.554;8.820;2023-04-07T05:06:55;95658.50;;;6.00;100.00
8717;BME280;4395;48.554;8.820;2023-04-07T05:09:02;95659.69;;;6.51;100.00
8717;BME280;4395;48.554;8.820;2023-04-07T05:11:13;95674.25;;;7.07;100.00
8717;BME280;4395;48.554;8.820;2023-04-07T05:13:19;95675.91;;;6.96;100.00
8717;BME280;4395;48.554;8.820;2023-04-07T05:15:23;95669.44;;;6.81;100.00
8717;BME280;4395;48.554;8.820;2023-04-07T05:17:27;95674.41;;;6.89;100.00
8717;BME280;4395;48.554;8.820;2023-04-07T05:19:33;95672.22;;;6.86;100.00
8717;BME280;4395;48.554;8.820;2023-04-07T05:21:45;95682.44;;;6.89;100.00
8717;BME280;4395;48.554;8.820;2023-04-07T05:23:48;95666.66;;;6.64;100.00
8717;BME280;4395;48.554;8.820;2023-04-07T05:25:54;95669.19;;;6.70;100.00
8717;BME280;4395;48.554;8.820;2023-04-07T05:27:57;95673.75;;;7.22;100.00
8717;BME280;4395;48.554;8.820;2023-04-07T05:30:01;95676.13;;;7.47;100.00
8717;BME280;4395;48.554;8.820;2023-04-07T05:32:08;95663.63;;;7.92;100.00
8717;BME280;4395;48.554;8.820;2023-04-07T05:34:11;95674.81;;;8.34;100.00
8717;BME280;4395;48.554;8.820;2023-04-07T05:36:19;95666.06;;;7.94;100.00
8717;BME280;4395;48.554;8.820;2023-04-07T05:38:26;95671.66;;;7.64;100.00
8717;BME280;4395;48.554;8.820;2023-04-07T05:40:33;95669.53;;;7.37;100.00
8717;BME280;4395;48.554;8.820;2023-04-07T05:42:41;95668.41;;;7.22;100.00
8717;BME280;4395;48.554;8.820;2023-04-07T05:44:44;95674.25;;;7.07;100.00
8717;BME280;4395;48.554;8.820;2023-04-07T05:46:48;95638.53;;;6.85;100.00
8717;BME280;4395;48.554;8.820;2023-04-07T05:48:52;95654.78;;;6.83;100.00
8717;BME280;4395;48.554;8.820;2023-04-07T05:50:55;95609.66;;;6.47;100.00
8717;BME280;4395;48.554;8.820;2023-04-07T05:52:59;95649.47;;;6.71;100.00
8717;BME280;4395;48.554;8.820;2023-04-07T05:55:04;95673.38;;;6.31;100.00
8717;BME280;4395;48.554;8.820;2023-04-07T05:57:07;95664.22;;;6.39;100.00
8717;BME280;4395;48.554;8.820;2023-04-07T05:59:15;95671.41;;;6.50;100.00
8717;BME280;4395;48.554;8.820;2023-04-07T06:01:19;95651.56;;;6.46;100.00
8717;BME280;4395;48.554;8.820;2023-04-07T06:03:22;95666.78;;;6.34;100.00
8717;BME280;4395;48.554;8.820;2023-04-07T06:05:34;95661.78;;;6.26;100.00
8717;BME280;4395;48.554;8.820;2023-04-07T06:07:36;95595.00;;;5.37;100.00
8717;BME280;4395;48.554;8.820;2023-04-07T06:09:39;95666.41;;;6.19;100.00
8717;BME280;4395;48.554;8.820;2023-04-07T06:11:44;95672.34;;;6.44;100.00
8717;BME280;4395;48.554;8.820;2023-04-07T06:13:49;95667.94;;;6.50;100.00
8717;BME280;4395;48.554;8.820;2023-04-07T06:15:53;95596.34;;;6.23;100.00
8717;BME280;4395;48.554;8.820;2023-04-07T06:17:56;95648.44;;;6.61;100.00
8717;BME280;4395;48.554;8.820;2023-04-07T06:19:59;95670.72;;;6.66;100.00
8717;BME280;4395;48.554;8.820;2023-04-07T06:22:06;95663.63;;;6.72;100.00
8717;BME280;4395;48.554;8.820;2023-04-07T06:24:09;95662.78;;;6.95;100.00
8717;BME280;4395;48.554;8.820;2023-04-07T06:26:12;95665.56;;;7.00;100.00
8717;BME280;4395;48.554;8.820;2023-04-07T06:28:16;95668.56;;;7.15;100.00
8717;BME280;4395;48.554;8.820;2023-04-07T06:30:19;95665.13;;;7.31;100.00
8717;BME280;4395;48.554;8.820;2023-04-07T06:32:22;95678.31;;;7.50;100.00
8717;BME280;4395;48.554;8.820;2023-04-07T06:34:25;95665.16;;;7.60;100.00
8717;BME280;4395;48.554;8.820;2023-04-07T06:36:28;95670.94;;;7.68;100.00
8717;BME280;4395;48.554;8.820;2023-04-07T06:38:31;95673.22;;;7.77;100.00
8717;BME280;4395;48.554;8.820;2023-04-07T06:40:35;95675.78;;;7.83;100.00
8717;BME280;4395;48.554;8.820;2023-04-07T06:42:38;95668.09;;;7.75;100.00
8717;BME280;4395;48.554;8.820;2023-04-07T06:44:52;95666.47;;;7.74;100.00
8717;BME280;4395;48.554;8.820;2023-04-07T06:46:54;95668.00;;;7.82;100.00
8717;BME280;4395;48.554;8.820;2023-04-07T06:48:57;95664.25;;;7.83;100.00
8717;BME280;4395;48.554;8.820;2023-04-07T06:51:00;95660.78;;;7.82;100.00
8717;BME280;4395;48.554;8.820;2023-04-07T06:53:03;95608.13;;;7.42;100.00
8717;BME280;4395;48.554;8.820;2023-04-07T06:55:07;95606.94;;;7.50;100.00
8717;BME280;4395;48.554;8.820;2023-04-07T06:57:09;95684.16;;;7.75;100.00
8717;BME280;4395;48.554;8.820;2023-04-07T06:59:13;95679.38;;;7.49;100.00
8717;BME280;4395;48.554;8.820;2023-04-07T07:01:17;95651.00;;;7.48;100.00
8717;BME280;4395;48.554;8.820;2023-04-07T07:03:20;95674.31;;;7.64;100.00
8717;BME280;4395;48.554;8.820;2023-04-07T07:05:23;95679.53;;;7.99;100.00
8717;BME280;4395;48.554;8.820;2023-04-07T07:07:26;95668.69;;;8.22;100.00
8717;BME280;4395;48.554;8.820;2023-04-07T07:09:29;95628.59;;;8.11;100.00
8717;BME280;4395;48.554;8.820;2023-04-07T07:11:31;95647.06;;;8.41;100.00
8717;BME280;4395;48.554;8.820;2023-04-07T07:13:35;95664.88;;;8.68;100.00
8717;BME280;4395;48.554;8.820;2023-04-07T07:15:38;95686.03;;;8.87;100.00
8717;BME280;4395;48.554;8.820;2023-04-07T07:17:43;95677.56;;;8.95;100.00
8717;BME280;4395;48.554;8.820;2023-04-07T07:19:45;95674.28;;;9.10;100.00
8717;BME280;4395;48.554;8.820;2023-04-07T07:21:48;95655.63;;;8.98;100.00
8717;BME280;4395;48.554;8.820;2023-04-07T07:23:51;95667.25;;;9.03;100.00
8717;BME280;4395;48.554;8.820;2023-04-07T07:25:54;95664.75;;;9.19;100.00
8717;BME280;4395;48.554;8.820;2023-04-07T07:27:57;95675.66;;;9.34;100.00
8717;BME280;4395;48.554;8.820;2023-04-07T07:30:00;95608.81;;;9.06;100.00
8717;BME280;4395;48.554;8.820;2023-04-07T07:32:02;95669.13;;;9.47;100.00
8717;BME280;4395;48.554;8.820;2023-04-07T07:34:06;95682.66;;;9.57;100.00
8717;BME280;4395;48.554;8.820;2023-04-07T07:36:09;95674.22;;;9.70;100.00
8717;BME280;4395;48.554;8.820;2023-04-07T07:38:12;95638.16;;;9.61;100.00
8717;BME280;4395;48.554;8.820;2023-04-07T07:40:15;95670.63;;;9.86;100.00
8717;BME280;4395;48.554;8.820;2023-04-07T07:42:18;95686.22;;;9.89;100.00
8717;BME280;4395;48.554;8.820;2023-04-07T07:44:21;95634.19;;;9.95;100.00
8717;BME280;4395;48.554;8.820;2023-04-07T07:46:24;95663.06;;;10.37;100.00
8717;BME280;4395;48.554;8.820;2023-04-07T07:48:27;95673.91;;;10.47;100.00
8717;BME280;4395;48.554;8.820;2023-04-07T07:50:32;95667.72;;;10.47;100.00
8717;BME280;4395;48.554;8.820;2023-04-07T07:52:35;95684.16;;;10.50;100.00
8717;BME280;4395;48.554;8.820;2023-04-07T07:54:38;95680.69;;;10.55;100.00
8717;BME280;4395;48.554;8.820;2023-04-07T07:56:41;95679.38;;;10.57;100.00
8717;BME280;4395;48.554;8.820;2023-04-07T07:58:43;95670.81;;;10.66;100.00
8717;BME280;4395;48.554;8.820;2023-04-07T08:00:46;95669.78;;;10.72;100.00
8717;BME280;4395;48.554;8.820;2023-04-07T08:02:49;95640.25;;;10.40;100.00
8717;BME280;4395;48.554;8.820;2023-04-07T08:04:52;95669.44;;;10.58;100.00
8717;BME280;4395;48.554;8.820;2023-04-07T08:06:56;95674.63;;;10.70;100.00
8717;BME280;4395;48.554;8.820;2023-04-07T08:08:59;95681.88;;;10.69;100.00
8717;BME280;4395;48.554;8.820;2023-04-07T08:11:02;95676.56;;;10.79;100.00
8717;BME280;4395;48.554;8.820;2023-04-07T08:13:05;95671.47;;;10.83;99.94
8717;BME280;4395;48.554;8.820;2023-04-07T08:15:08;95673.19;;;10.99;99.02
8717;BME280;4395;48.554;8.820;2023-04-07T08:17:11;95680.81;;;11.17;99.02
8717;BME280;4395;48.554;8.820;2023-04-07T08:19:14;95672.75;;;11.17;97.73
8717;BME280;4395;48.554;8.820;2023-04-07T08:21:17;95672.56;;;11.34;94.75
8717;BME280;4395;48.554;8.820;2023-04-07T08:23:21;95685.28;;;11.54;95.76
8717;BME280;4395;48.554;8.820;2023-04-07T08:25:24;95680.75;;;11.59;93.31
8717;BME280;4395;48.554;8.820;2023-04-07T08:27:27;95683.81;;;11.83;94.04
8717;BME280;4395;48.554;8.820;2023-04-07T08:29:30;95683.84;;;11.94;91.88
8717;BME280;4395;48.554;8.820;2023-04-07T08:31:33;95686.56;;;12.04;91.86
8717;BME280;4395;48.554;8.820;2023-04-07T08:33:36;95645.06;;;12.00;90.02
8717;BME280;4395;48.554;8.820;2023-04-07T08:35:39;95678.50;;;12.39;87.64
8717;BME280;4395;48.554;8.820;2023-04-07T08:37:42;95658.31;;;12.37;86.87
8717;BME280;4395;48.554;8.820;2023-04-07T08:39:46;95663.97;;;12.50;84.24
8717;BME280;4395;48.554;8.820;2023-04-07T08:41:49;95670.94;;;12.92;84.46
8717;BME280;4395;48.554;8.820;2023-04-07T08:43:52;95689.25;;;13.15;84.26
8717;BME280;4395;48.554;8.820;2023-04-07T08:45:56;95676.88;;;13.09;83.72
8717;BME280;4395;48.554;8.820;2023-04-07T08:48:03;95683.34;;;12.32;84.27
8717;BME280;4395;48.554;8.820;2023-04-07T08:50:08;95678.50;;;12.49;84.82
8717;BME280;4395;48.554;8.820;2023-04-07T08:52:11;95676.34;;;12.41;84.88
8717;BME280;4395;48.554;8.820;2023-04-07T08:54:17;95676.06;;;12.78;87.66
8717;BME280;4395;48.554;8.820;2023-04-07T08:56:24;95676.09;;;12.53;82.73
8717;BME280;4395;48.554;8.820;2023-04-07T08:58:27;95676.34;;;12.31;87.17
8717;BME280;4395;48.554;8.820;2023-04-07T09:00:30;95672.91;;;11.48;92.57
8717;BME280;4395;48.554;8.820;2023-04-07T09:02:35;95690.72;;;11.64;89.45
8717;BME280;4395;48.554;8.820;2023-04-07T09:04:39;95679.69;;;11.08;93.76
8717;BME280;4395;48.554;8.820;2023-04-07T09:06:42;95672.13;;;11.63;94.27
8717;BME280;4395;48.554;8.820;2023-04-07T09:08:45;95689.22;;;11.88;94.56
8717;BME280;4395;48.554;8.820;2023-04-07T09:10:48;95621.22;;;11.46;87.72
8717;BME280;4395;48.554;8.820;2023-04-07T09:12:53;95693.56;;;12.05;90.58
8717;BME280;4395;48.554;8.820;2023-04-07T09:14:56;95649.34;;;11.90;89.48
8717;BME280;4395;48.554;8.820;2023-04-07T09:16:59;95697.06;;;12.10;81.60
8717;BME280;4395;48.554;8.820;2023-04-07T09:19:01;95688.75;;;12.32;84.66
8717;BME280;4395;48.554;8.820;2023-04-07T09:21:04;95682.56;;;12.42;81.35
8717;BME280;4395;48.554;8.820;2023-04-07T09:23:26;95684.88;;;11.82;81.15
8717;BME280;4395;48.554;8.820;2023-04-07T09:25:29;95683.75;;;11.73;84.19
8717;BME280;4395;48.554;8.820;2023-04-07T09:27:34;95693.84;;;12.18;83.55
8717;BME280;4395;48.554;8.820;2023-04-07T09:29:39;95687.41;;;12.55;82.50
8717;BME280;4395;48.554;8.820;2023-04-07T09:31:44;95695.50;;;12.45;82.20
8717;BME280;4395;48.554;8.820;2023-04-07T09:33:48;95632.66;;;11.88;80.69
8717;BME280;4395;48.554;8.820;2023-04-07T09:35:52;95689.22;;;11.99;82.21
8717;BME280;4395;48.554;8.820;2023-04-07T09:38:03;95686.53;;;11.94;93.17
8717;BME280;4395;48.554;8.820;2023-04-07T09:40:07;95699.69;;;11.22;94.43
8717;BME280;4395;48.554;8.820;2023-04-07T09:42:10;95699.03;;;11.05;100.00
8717;BME280;4395;48.554;8.820;2023-04-07T09:44:13;95701.66;;;10.95;98.94
8717;BME280;4395;48.554;8.820;2023-04-07T09:46:19;95690.69;;;11.02;100.00
8717;BME280;4395;48.554;8.820;2023-04-07T09:48:22;95692.75;;;11.37;98.46
8717;BME280;4395;48.554;8.820;2023-04-07T09:50:31;95698.88;;;10.80;99.79
8717;BME280;4395;48.554;8.820;2023-04-07T09:52:49;95701.66;;;10.95;100.00
8717;BME280;4395;48.554;8.820;2023-04-07T09:54:53;95648.34;;;10.82;98.60
8717;BME280;4395;48.554;8.820;2023-04-07T09:56:58;95694.44;;;11.01;100.00
8717;BME280;4395;48.554;8.820;2023-04-07T09:59:02;95703.03;;;11.50;99.10
8717;BME280;4395;48.554;8.820;2023-04-07T10:01:06;95694.03;;;11.24;99.94
8717;BME280;4395;48.554;8.820;2023-04-07T10:03:11;95697.53;;;11.24;100.00
8717;BME280;4395;48.554;8.820;2023-04-07T10:05:15;95693.94;;;11.61;97.09
8717;BME280;4395;48.554;8.820;2023-04-07T10:07:21;95691.66;;;11.33;97.61
8717;BME280;4395;48.554;8.820;2023-04-07T10:09:27;95699.13;;;10.78;100.00
8717;BME280;4395;48.554;8.820;2023-04-07T10:11:30;95697.03;;;10.48;100.00
8717;BME280;4395;48.554;8.820;2023-04-07T10:13:35;95680.91;;;10.21;100.00
8717;BME280;4395;48.554;8.820;2023-04-07T10:15:38;95704.84;;;10.23;100.00
8717;BME280;4395;48.554;8.820;2023-04-07T10:17:45;95682.13;;;10.36;97.86
8717;BME280;4395;48.554;8.820;2023-04-07T10:19:50;95660.41;;;10.15;93.06
8717;BME280;4395;48.554;8.820;2023-04-07T10:21:53;95700.91;;;10.62;94.28
8717;BME280;4395;48.554;8.820;2023-04-07T10:23:59;95695.31;;;10.69;87.71
8717;BME280;4395;48.554;8.820;2023-04-07T10:26:09;95697.72;;;10.71;87.96
8717;BME280;4395;48.554;8.820;2023-04-07T10:28:13;95640.22;;;10.72;88.69
8717;BME280;4395;48.554;8.820;2023-04-07T10:30:20;95695.19;;;10.91;80.92
8717;BME280;4395;48.554;8.820;2023-04-07T10:32:23;95691.38;;;10.82;84.43
8717;BME280;4395;48.554;8.820;2023-04-07T10:37:10;95704.75;;;11.14;72.32
8717;BME280;4395;48.554;8.820;2023-04-07T10:39:21;95708.59;;;11.28;77.75
8717;BME280;4395;48.554;8.820;2023-04-07T10:41:31;95701.91;;;11.36;78.99
8717;BME280;4395;48.554;8.820;2023-04-07T10:43:39;95702.47;;;11.43;79.41
8717;BME280;4395;48.554;8.820;2023-04-07T10:45:53;95704.00;;;11.81;79.95
8717;BME280;4395;48.554;8.820;2023-04-07T10:48:09;95695.41;;;11.26;82.63
8717;BME280;4395;48.554;8.820;2023-04-07T10:50:19;95703.63;;;11.62;79.13
8717;BME280;4395;48.554;8.820;2023-04-07T10:52:24;95672.03;;;11.32;80.93
8717;BME280;4395;48.554;8.820;2023-04-07T10:54:27;95704.25;;;11.79;76.08
8717;BME280;4395;48.554;8.820;2023-04-07T10:59:13;95692.53;;;12.72;70.04
8717;BME280;4395;48.554;8.820;2023-04-07T11:01:18;95678.25;;;12.61;71.31
8717;BME280;4395;48.554;8.820;2023-04-07T11:03:22;95646.72;;;12.56;68.50
8717;BME280;4395;48.554;8.820;2023-04-07T11:05:26;95705.47;;;12.60;69.22
8717;BME280;4395;48.554;8.820;2023-04-07T11:07:48;95691.19;;;12.44;74.19
8717;BME280;4395;48.554;8.820;2023-04-07T11:10:07;95708.16;;;13.05;77.35
8717;BME280;4395;48.554;8.820;2023-04-07T11:12:21;95705.72;;;12.94;76.81
8717;BME280;4395;48.554;8.820;2023-04-07T11:14:24;95430.44;;;11.24;76.27
8717;BME280;4395;48.554;8.820;2023-04-07T11:16:35;95711.63;;;13.41;71.40
8717;BME280;4395;48.554;8.820;2023-04-07T11:18:39;95702.25;;;13.18;69.69
8717;BME280;4395;48.554;8.820;2023-04-07T11:20:47;95688.19;;;13.11;71.20
8717;BME280;4395;48.554;8.820;2023-04-07T11:22:59;95701.69;;;12.86;70.89
8717;BME280;4395;48.554;8.820;2023-04-07T11:25:02;95702.78;;;12.75;73.11
8717;BME280;4395;48.554;8.820;2023-04-07T11:27:09;95695.22;;;13.17;75.26